Terminal Aerodrome Forecast
Issued by NWS

Home | Current Version | Previous Version | Text Only | Print | Product List | Glossary On
Versions: 1 2 3 4 5 6 7 8 9 10 11 12 13 14 15
000
FTUS42 TJSJ 220530
TAFJBQ
TAF
TJBQ 220530Z 2206/2306 15010G20KT P6SM VCSH SCT020 OVC250
     FM221200 16012G20KT P6SM VCTS BKN025CB OVC250
     FM230000 14010G16KT P6SM VCSH SCT020 BKN250
      AMD NOT SKED=

USA.gov is the U.S. government's official web portal to all federal, state and local government web resources and services.